Terminal Aerodrome Forecast
Issued by NWS Wakefield, VA

Home | Current Version | Previous Version | Text Only | Print | Product List | Glossary On
Versions: 1 2 3 4 5 6 7 8 9 10 11 12 13 14 15 16 17 18
000
FTUS41 KAKQ 301700
TAFORF
TAF
KORF 301726Z 3018/0118 05006KT P6SM SCT030
     FM302300 04006KT P6SM SKC
     FM010900 03005KT P6SM BKN025
     FM011300 04006KT P6SM SCT025=

USA.gov is the U.S. government's official web portal to all federal, state and local government web resources and services.